sensor_id;sensor_type;location;lat;lon;timestamp;temperature;humidity
69546;SHT31;56766;52.260;20.746;2023-11-19T00:00:08;0.61;91.94
69546;SHT31;56766;52.260;20.746;2023-11-19T00:02:58;0.61;91.90
69546;SHT31;56766;52.260;20.746;2023-11-19T00:05:25;0.65;91.96
69546;SHT31;56766;52.260;20.746;2023-11-19T00:07:54;0.68;91.97
69546;SHT31;56766;52.260;20.746;2023-11-19T00:10:21;0.70;91.91
69546;SHT31;56766;52.260;20.746;2023-11-19T00:12:49;0.70;91.96
69546;SHT31;56766;52.260;20.746;2023-11-19T00:15:17;0.70;91.91
69546;SHT31;56766;52.260;20.746;2023-11-19T00:17:46;0.72;92.00
69546;SHT31;56766;52.260;20.746;2023-11-19T00:20:16;0.72;91.92
69546;SHT31;56766;52.260;20.746;2023-11-19T00:22:45;0.70;91.83
69546;SHT31;56766;52.260;20.746;2023-11-19T00:25:18;0.69;91.87
69546;SHT31;56766;52.260;20.746;2023-11-19T00:27:45;0.70;91.83
69546;SHT31;56766;52.260;20.746;2023-11-19T00:30:13;0.70;91.90
69546;SHT31;56766;52.260;20.746;2023-11-19T00:32:41;0.70;91.86
69546;SHT31;56766;52.260;20.746;2023-11-19T00:35:08;0.71;91.89
69546;SHT31;56766;52.260;20.746;2023-11-19T00:37:40;0.71;91.85
69546;SHT31;56766;52.260;20.746;2023-11-19T00:40:09;0.68;91.75
69546;SHT31;56766;52.260;20.746;2023-11-19T00:42:37;0.65;91.74
69546;SHT31;56766;52.260;20.746;2023-11-19T00:45:04;0.66;91.79
69546;SHT31;56766;52.260;20.746;2023-11-19T00:47:35;0.68;91.84
69546;SHT31;56766;52.260;20.746;2023-11-19T00:50:02;0.69;91.85
69546;SHT31;56766;52.260;20.746;2023-11-19T00:52:29;0.70;91.79
69546;SHT31;56766;52.260;20.746;2023-11-19T00:54:56;0.69;91.79
69546;SHT31;56766;52.260;20.746;2023-11-19T00:57:23;0.69;91.80
69546;SHT31;56766;52.260;20.746;2023-11-19T00:59:50;0.71;91.80
69546;SHT31;56766;52.260;20.746;2023-11-19T01:02:17;0.72;91.81
69546;SHT31;56766;52.260;20.746;2023-11-19T01:04:43;0.70;91.73
69546;SHT31;56766;52.260;20.746;2023-11-19T01:07:10;0.66;91.70
69546;SHT31;56766;52.260;20.746;2023-11-19T01:09:42;0.64;91.67
69546;SHT31;56766;52.260;20.746;2023-11-19T01:12:09;0.66;91.78
69546;SHT31;56766;52.260;20.746;2023-11-19T01:14:36;0.65;91.76
69546;SHT31;56766;52.260;20.746;2023-11-19T01:17:03;0.64;91.70
69546;SHT31;56766;52.260;20.746;2023-11-19T01:19:31;0.64;91.70
69546;SHT31;56766;52.260;20.746;2023-11-19T01:21:57;0.62;91.70
69546;SHT31;56766;52.260;20.746;2023-11-19T01:24:24;0.63;91.78
69546;SHT31;56766;52.260;20.746;2023-11-19T01:26:51;0.67;91.84
69546;SHT31;56766;52.260;20.746;2023-11-19T01:29:20;0.70;91.86
69546;SHT31;56766;52.260;20.746;2023-11-19T01:31:46;0.71;91.86
69546;SHT31;56766;52.260;20.746;2023-11-19T01:34:13;0.74;91.88
69546;SHT31;56766;52.260;20.746;2023-11-19T01:36:40;0.75;91.83
69546;SHT31;56766;52.260;20.746;2023-11-19T01:39:07;0.72;91.70
69546;SHT31;56766;52.260;20.746;2023-11-19T01:41:34;0.71;91.73
69546;SHT31;56766;52.260;20.746;2023-11-19T01:44:08;0.73;91.73
69546;SHT31;56766;52.260;20.746;2023-11-19T01:46:35;0.70;91.69
69546;SHT31;56766;52.260;20.746;2023-11-19T01:49:04;0.70;91.72
69546;SHT31;56766;52.260;20.746;2023-11-19T01:51:31;0.71;91.75
69546;SHT31;56766;52.260;20.746;2023-11-19T01:53:58;0.72;91.80
69546;SHT31;56766;52.260;20.746;2023-11-19T01:56:26;0.76;91.89
69546;SHT31;56766;52.260;20.746;2023-11-19T01:58:55;0.78;91.90
69546;SHT31;56766;52.260;20.746;2023-11-19T02:01:23;0.76;91.80
69546;SHT31;56766;52.260;20.746;2023-11-19T02:03:51;0.77;91.80
69546;SHT31;56766;52.260;20.746;2023-11-19T02:06:18;0.80;91.82
69546;SHT31;56766;52.260;20.746;2023-11-19T02:08:45;0.83;91.90
69546;SHT31;56766;52.260;20.746;2023-11-19T02:11:12;0.83;91.83
69546;SHT31;56766;52.260;20.746;2023-11-19T02:13:39;0.84;91.81
69546;SHT31;56766;52.260;20.746;2023-11-19T02:16:07;0.83;91.79
69546;SHT31;56766;52.260;20.746;2023-11-19T02:18:37;0.83;91.76
69546;SHT31;56766;52.260;20.746;2023-11-19T02:21:03;0.83;91.79
69546;SHT31;56766;52.260;20.746;2023-11-19T02:23:31;0.82;91.80
69546;SHT31;56766;52.260;20.746;2023-11-19T02:28:57;0.88;91.91
69546;SHT31;56766;52.260;20.746;2023-11-19T02:31:24;0.89;91.89
69546;SHT31;56766;52.260;20.746;2023-11-19T02:33:53;0.88;91.90
69546;SHT31;56766;52.260;20.746;2023-11-19T02:36:22;0.88;91.90
69546;SHT31;56766;52.260;20.746;2023-11-19T02:38:48;0.89;91.90
69546;SHT31;56766;52.260;20.746;2023-11-19T02:41:16;0.92;91.98
69546;SHT31;56766;52.260;20.746;2023-11-19T02:43:42;0.95;91.98
69546;SHT31;56766;52.260;20.746;2023-11-19T02:46:09;0.97;91.99
69546;SHT31;56766;52.260;20.746;2023-11-19T02:48:37;0.96;92.00
69546;SHT31;56766;52.260;20.746;2023-11-19T02:51:04;0.95;92.00
69546;SHT31;56766;52.260;20.746;2023-11-19T02:53:36;0.96;92.04
69546;SHT31;56766;52.260;20.746;2023-11-19T02:56:06;0.99;92.10
69546;SHT31;56766;52.260;20.746;2023-11-19T02:58:52;1.00;92.08
69546;SHT31;56766;52.260;20.746;2023-11-19T03:01:24;1.01;92.09
69546;SHT31;56766;52.260;20.746;2023-11-19T03:03:58;1.03;92.10
69546;SHT31;56766;52.260;20.746;2023-11-19T03:06:28;1.05;92.11
69546;SHT31;56766;52.260;20.746;2023-11-19T03:08:55;1.05;92.10
69546;SHT31;56766;52.260;20.746;2023-11-19T03:11:22;1.07;92.12
69546;SHT31;56766;52.260;20.746;2023-11-19T03:13:49;1.07;92.17
69546;SHT31;56766;52.260;20.746;2023-11-19T03:16:15;1.09;92.14
69546;SHT31;56766;52.260;20.746;2023-11-19T03:18:43;1.09;92.12
69546;SHT31;56766;52.260;20.746;2023-11-19T03:21:10;1.10;92.10
69546;SHT31;56766;52.260;20.746;2023-11-19T03:23:36;1.11;92.11
69546;SHT31;56766;52.260;20.746;2023-11-19T03:26:03;1.12;92.15
69546;SHT31;56766;52.260;20.746;2023-11-19T03:28:32;1.13;92.16
69546;SHT31;56766;52.260;20.746;2023-11-19T03:30:58;1.15;92.18
69546;SHT31;56766;52.260;20.746;2023-11-19T03:33:25;1.17;92.19
69546;SHT31;56766;52.260;20.746;2023-11-19T03:35:54;1.18;92.17
69546;SHT31;56766;52.260;20.746;2023-11-19T03:38:23;1.19;92.19
69546;SHT31;56766;52.260;20.746;2023-11-19T03:40:51;1.20;92.19
69546;SHT31;56766;52.260;20.746;2023-11-19T03:43:17;1.21;92.20
69546;SHT31;56766;52.260;20.746;2023-11-19T03:45:45;1.22;92.15
69546;SHT31;56766;52.260;20.746;2023-11-19T03:48:13;1.22;92.12
69546;SHT31;56766;52.260;20.746;2023-11-19T03:50:43;1.22;92.14
69546;SHT31;56766;52.260;20.746;2023-11-19T03:53:11;1.24;92.18
69546;SHT31;56766;52.260;20.746;2023-11-19T03:55:38;1.25;92.15
69546;SHT31;56766;52.260;20.746;2023-11-19T03:58:04;1.26;92.17
69546;SHT31;56766;52.260;20.746;2023-11-19T04:00:32;1.26;92.13
69546;SHT31;56766;52.260;20.746;2023-11-19T04:02:58;1.22;92.04
69546;SHT31;56766;52.260;20.746;2023-11-19T04:05:25;1.19;92.07
69546;SHT31;56766;52.260;20.746;2023-11-19T04:07:52;1.19;92.10
69546;SHT31;56766;52.260;20.746;2023-11-19T04:10:19;1.18;92.10
69546;SHT31;56766;52.260;20.746;2023-11-19T04:12:46;1.15;92.08
69546;SHT31;56766;52.260;20.746;2023-11-19T04:15:15;1.15;92.11
69546;SHT31;56766;52.260;20.746;2023-11-19T04:17:42;1.14;92.12
69546;SHT31;56766;52.260;20.746;2023-11-19T04:20:09;1.15;92.15
69546;SHT31;56766;52.260;20.746;2023-11-19T04:22:39;1.16;92.19
69546;SHT31;56766;52.260;20.746;2023-11-19T04:25:07;1.15;92.18
69546;SHT31;56766;52.260;20.746;2023-11-19T04:27:35;1.16;92.20
69546;SHT31;56766;52.260;20.746;2023-11-19T04:30:02;1.18;92.21
69546;SHT31;56766;52.260;20.746;2023-11-19T04:32:30;1.17;92.19
69546;SHT31;56766;52.260;20.746;2023-11-19T04:34:56;1.18;92.19
69546;SHT31;56766;52.260;20.746;2023-11-19T04:37:25;1.21;92.28
69546;SHT31;56766;52.260;20.746;2023-11-19T04:39:52;1.24;92.29
69546;SHT31;56766;52.260;20.746;2023-11-19T04:42:19;1.26;92.28
69546;SHT31;56766;52.260;20.746;2023-11-19T04:44:48;1.23;92.19
69546;SHT31;56766;52.260;20.746;2023-11-19T04:47:15;1.21;92.20
69546;SHT31;56766;52.260;20.746;2023-11-19T04:49:42;1.20;92.20
69546;SHT31;56766;52.260;20.746;2023-11-19T04:52:09;1.16;92.20
69546;SHT31;56766;52.260;20.746;2023-11-19T04:54:42;1.16;92.20
69546;SHT31;56766;52.260;20.746;2023-11-19T04:57:12;1.16;92.25
69546;SHT31;56766;52.260;20.746;2023-11-19T04:59:38;1.17;92.30
69546;SHT31;56766;52.260;20.746;2023-11-19T05:02:05;1.16;92.30
69546;SHT31;56766;52.260;20.746;2023-11-19T05:04:32;1.17;92.30
69546;SHT31;56766;52.260;20.746;2023-11-19T05:06:58;1.16;92.30
69546;SHT31;56766;52.260;20.746;2023-11-19T05:09:25;1.15;92.30
69546;SHT31;56766;52.260;20.746;2023-11-19T05:11:52;1.16;92.31
69546;SHT31;56766;52.260;20.746;2023-11-19T05:14:19;1.15;92.30
69546;SHT31;56766;52.260;20.746;2023-11-19T05:16:47;1.12;92.30
69546;SHT31;56766;52.260;20.746;2023-11-19T05:19:13;1.12;92.31
69546;SHT31;56766;52.260;20.746;2023-11-19T05:21:44;1.12;92.34
69546;SHT31;56766;52.260;20.746;2023-11-19T05:24:11;1.14;92.34
69546;SHT31;56766;52.260;20.746;2023-11-19T05:26:38;1.13;92.32
69546;SHT31;56766;52.260;20.746;2023-11-19T05:29:06;1.13;92.35
69546;SHT31;56766;52.260;20.746;2023-11-19T05:31:33;1.14;92.39
69546;SHT31;56766;52.260;20.746;2023-11-19T05:33:59;1.16;92.40
69546;SHT31;56766;52.260;20.746;2023-11-19T05:36:26;1.15;92.38
69546;SHT31;56766;52.260;20.746;2023-11-19T05:38:54;1.17;92.40
69546;SHT31;56766;52.260;20.746;2023-11-19T05:41:20;1.18;92.40
69546;SHT31;56766;52.260;20.746;2023-11-19T05:43:47;1.19;92.39
69546;SHT31;56766;52.260;20.746;2023-11-19T05:46:14;1.17;92.38
69546;SHT31;56766;52.260;20.746;2023-11-19T05:48:40;1.17;92.31
69546;SHT31;56766;52.260;20.746;2023-11-19T05:51:07;1.17;92.35
69546;SHT31;56766;52.260;20.746;2023-11-19T05:53:33;1.18;92.33
69546;SHT31;56766;52.260;20.746;2023-11-19T05:56:00;1.18;92.39
69546;SHT31;56766;52.260;20.746;2023-11-19T05:58:30;1.19;92.39
69546;SHT31;56766;52.260;20.746;2023-11-19T06:00:57;1.20;92.40
69546;SHT31;56766;52.260;20.746;2023-11-19T06:03:24;1.20;92.35
69546;SHT31;56766;52.260;20.746;2023-11-19T06:05:51;1.19;92.33
69546;SHT31;56766;52.260;20.746;2023-11-19T06:08:18;1.20;92.39
69546;SHT31;56766;52.260;20.746;2023-11-19T06:10:47;1.20;92.37
69546;SHT31;56766;52.260;20.746;2023-11-19T06:13:16;1.18;92.29
69546;SHT31;56766;52.260;20.746;2023-11-19T06:15:42;1.16;92.30
69546;SHT31;56766;52.260;20.746;2023-11-19T06:18:10;1.16;92.30
69546;SHT31;56766;52.260;20.746;2023-11-19T06:20:41;1.16;92.33
69546;SHT31;56766;52.260;20.746;2023-11-19T06:23:10;1.18;92.37
69546;SHT31;56766;52.260;20.746;2023-11-19T06:25:37;1.19;92.33
69546;SHT31;56766;52.260;20.746;2023-11-19T06:28:05;1.19;92.30
69546;SHT31;56766;52.260;20.746;2023-11-19T06:30:31;1.20;92.30
69546;SHT31;56766;52.260;20.746;2023-11-19T06:32:59;1.19;92.30
69546;SHT31;56766;52.260;20.746;2023-11-19T06:35:26;1.18;92.28
69546;SHT31;56766;52.260;20.746;2023-11-19T06:37:53;1.17;92.26
69546;SHT31;56766;52.260;20.746;2023-11-19T06:40:20;1.19;92.30
69546;SHT31;56766;52.260;20.746;2023-11-19T06:42:47;1.19;92.26
69546;SHT31;56766;52.260;20.746;2023-11-19T06:45:13;1.18;92.20
69546;SHT31;56766;52.260;20.746;2023-11-19T06:47:40;1.17;92.21
69546;SHT31;56766;52.260;20.746;2023-11-19T06:50:07;1.19;92.20
69546;SHT31;56766;52.260;20.746;2023-11-19T06:52:35;1.17;92.15
69546;SHT31;56766;52.260;20.746;2023-11-19T06:55:04;1.17;92.13
69546;SHT31;56766;52.260;20.746;2023-11-19T06:57:32;1.16;92.09
69546;SHT31;56766;52.260;20.746;2023-11-19T06:59:59;1.16;92.10
69546;SHT31;56766;52.260;20.746;2023-11-19T07:02:26;1.16;92.00
69546;SHT31;56766;52.260;20.746;2023-11-19T07:04:52;1.12;91.97
69546;SHT31;56766;52.260;20.746;2023-11-19T07:07:19;1.13;91.98
69546;SHT31;56766;52.260;20.746;2023-11-19T07:09:46;1.15;92.05
69546;SHT31;56766;52.260;20.746;2023-11-19T07:12:13;1.14;92.00
69546;SHT31;56766;52.260;20.746;2023-11-19T07:14:40;1.12;91.90
69546;SHT31;56766;52.260;20.746;2023-11-19T07:17:08;1.11;91.89
69546;SHT31;56766;52.260;20.746;2023-11-19T07:19:35;1.10;91.85
69546;SHT31;56766;52.260;20.746;2023-11-19T07:22:06;1.07;91.83
69546;SHT31;56766;52.260;20.746;2023-11-19T07:24:33;1.05;91.80
69546;SHT31;56766;52.260;20.746;2023-11-19T07:27:00;1.05;91.81
69546;SHT31;56766;52.260;20.746;2023-11-19T07:29:29;1.08;91.85
69546;SHT31;56766;52.260;20.746;2023-11-19T07:31:56;1.12;91.90
69546;SHT31;56766;52.260;20.746;2023-11-19T07:34:24;1.18;91.90
69546;SHT31;56766;52.260;20.746;2023-11-19T07:36:51;1.21;91.85
69546;SHT31;56766;52.260;20.746;2023-11-19T07:39:18;1.24;91.76
69546;SHT31;56766;52.260;20.746;2023-11-19T07:41:45;1.29;91.77
69546;SHT31;56766;52.260;20.746;2023-11-19T07:44:11;1.34;91.73
69546;SHT31;56766;52.260;20.746;2023-11-19T07:46:38;1.35;91.64
69546;SHT31;56766;52.260;20.746;2023-11-19T07:49:05;1.36;91.52
69546;SHT31;56766;52.260;20.746;2023-11-19T07:51:31;1.40;91.50
69546;SHT31;56766;52.260;20.746;2023-11-19T07:53:58;1.46;91.51
69546;SHT31;56766;52.260;20.746;2023-11-19T07:56:24;1.53;91.53
69546;SHT31;56766;52.260;20.746;2023-11-19T07:58:51;1.59;91.44
69546;SHT31;56766;52.260;20.746;2023-11-19T08:01:19;1.63;91.34
69546;SHT31;56766;52.260;20.746;2023-11-19T08:03:45;1.65;91.20
69546;SHT31;56766;52.260;20.746;2023-11-19T08:06:12;1.68;91.18
69546;SHT31;56766;52.260;20.746;2023-11-19T08:08:39;1.73;91.16
69546;SHT31;56766;52.260;20.746;2023-11-19T08:11:05;1.77;91.07
69546;SHT31;56766;52.260;20.746;2023-11-19T08:13:32;1.78;90.85
69546;SHT31;56766;52.260;20.746;2023-11-19T08:15:59;1.78;90.76
69546;SHT31;56766;52.260;20.746;2023-11-19T08:18:25;1.75;90.63
69546;SHT31;56766;52.260;20.746;2023-11-19T08:20:52;1.76;90.70
69546;SHT31;56766;52.260;20.746;2023-11-19T08:23:20;1.80;90.68
69546;SHT31;56766;52.260;20.746;2023-11-19T08:25:47;1.85;90.64
69546;SHT31;56766;52.260;20.746;2023-11-19T08:28:13;1.95;90.59
69546;SHT31;56766;52.260;20.746;2023-11-19T08:30:40;2.07;90.58
69546;SHT31;56766;52.260;20.746;2023-11-19T08:33:07;2.20;90.46
69546;SHT31;56766;52.260;20.746;2023-11-19T08:35:34;2.22;90.18
69546;SHT31;56766;52.260;20.746;2023-11-19T08:38:01;2.22;90.02
69546;SHT31;56766;52.260;20.746;2023-11-19T08:40:28;2.26;90.07
69546;SHT31;56766;52.260;20.746;2023-11-19T08:42:56;2.34;90.13
69546;SHT31;56766;52.260;20.746;2023-11-19T08:45:22;2.44;90.09
69546;SHT31;56766;52.260;20.746;2023-11-19T08:47:50;2.57;90.11
69546;SHT31;56766;52.260;20.746;2023-11-19T08:50:16;2.60;89.86
69546;SHT31;56766;52.260;20.746;2023-11-19T08:52:43;2.58;89.60
69546;SHT31;56766;52.260;20.746;2023-11-19T08:55:10;2.59;89.57
69546;SHT31;56766;52.260;20.746;2023-11-19T08:57:38;2.58;89.35
69546;SHT31;56766;52.260;20.746;2023-11-19T09:00:07;2.56;89.30
69546;SHT31;56766;52.260;20.746;2023-11-19T09:02:35;2.55;89.33
69546;SHT31;56766;52.260;20.746;2023-11-19T09:05:04;2.58;89.36
69546;SHT31;56766;52.260;20.746;2023-11-19T09:07:33;2.61;89.28
69546;SHT31;56766;52.260;20.746;2023-11-19T09:10:00;2.68;89.24
69546;SHT31;56766;52.260;20.746;2023-11-19T09:12:27;2.71;89.12
69546;SHT31;56766;52.260;20.746;2023-11-19T09:14:54;2.66;88.90
69546;SHT31;56766;52.260;20.746;2023-11-19T09:17:20;2.64;89.01
69546;SHT31;56766;52.260;20.746;2023-11-19T09:19:47;2.65;89.15
69546;SHT31;56766;52.260;20.746;2023-11-19T09:22:13;2.62;89.15
69546;SHT31;56766;52.260;20.746;2023-11-19T09:24:40;2.54;88.90
69546;SHT31;56766;52.260;20.746;2023-11-19T09:27:07;2.48;89.13
69546;SHT31;56766;52.260;20.746;2023-11-19T09:29:34;2.49;89.21
69546;SHT31;56766;52.260;20.746;2023-11-19T09:32:00;2.46;89.01
69546;SHT31;56766;52.260;20.746;2023-11-19T09:34:27;2.43;88.93
69546;SHT31;56766;52.260;20.746;2023-11-19T09:36:54;2.40;88.98
69546;SHT31;56766;52.260;20.746;2023-11-19T09:39:21;2.37;89.00
69546;SHT31;56766;52.260;20.746;2023-11-19T09:41:47;2.35;89.02
69546;SHT31;56766;52.260;20.746;2023-11-19T09:44:15;2.32;89.15
69546;SHT31;56766;52.260;20.746;2023-11-19T09:46:44;2.28;89.11
69546;SHT31;56766;52.260;20.746;2023-11-19T09:49:13;2.26;89.29
69546;SHT31;56766;52.260;20.746;2023-11-19T09:51:44;2.25;89.26
69546;SHT31;56766;52.260;20.746;2023-11-19T09:54:11;2.24;89.29
69546;SHT31;56766;52.260;20.746;2023-11-19T09:56:40;2.24;89.40
69546;SHT31;56766;52.260;20.746;2023-11-19T09:59:08;2.24;89.33
69546;SHT31;56766;52.260;20.746;2023-11-19T10:01:37;2.18;89.22
69546;SHT31;56766;52.260;20.746;2023-11-19T10:04:06;2.21;89.41
69546;SHT31;56766;52.260;20.746;2023-11-19T10:06:33;2.25;89.49
69546;SHT31;56766;52.260;20.746;2023-11-19T10:09:00;2.23;89.42
69546;SHT31;56766;52.260;20.746;2023-11-19T10:11:27;2.20;89.36
69546;SHT31;56766;52.260;20.746;2023-11-19T10:13:54;2.15;89.30
69546;SHT31;56766;52.260;20.746;2023-11-19T10:16:20;2.11;89.24
69546;SHT31;56766;52.260;20.746;2023-11-19T10:18:55;2.09;89.34
69546;SHT31;56766;52.260;20.746;2023-11-19T10:21:22;2.10;89.43
69546;SHT31;56766;52.260;20.746;2023-11-19T10:23:51;2.10;89.50
69546;SHT31;56766;52.260;20.746;2023-11-19T10:26:19;2.09;89.55
69546;SHT31;56766;52.260;20.746;2023-11-19T10:28:47;2.10;89.60
69546;SHT31;56766;52.260;20.746;2023-11-19T10:31:19;2.11;89.69
69546;SHT31;56766;52.260;20.746;2023-11-19T10:33:55;2.14;89.72
69546;SHT31;56766;52.260;20.746;2023-11-19T10:36:22;2.16;89.68
69546;SHT31;56766;52.260;20.746;2023-11-19T10:38:53;2.15;89.61
69546;SHT31;56766;52.260;20.746;2023-11-19T10:41:31;2.15;89.68
69546;SHT31;56766;52.260;20.746;2023-11-19T10:43:59;2.13;89.65
69546;SHT31;56766;52.260;20.746;2023-11-19T10:46:40;2.10;89.63
69546;SHT31;56766;52.260;20.746;2023-11-19T10:49:09;2.05;89.70
69546;SHT31;56766;52.260;20.746;2023-11-19T10:51:45;2.03;89.70
69546;SHT31;56766;52.260;20.746;2023-11-19T10:54:19;2.01;89.72
69546;SHT31;56766;52.260;20.746;2023-11-19T10:56:55;2.00;89.80
69546;SHT31;56766;52.260;20.746;2023-11-19T10:59:29;1.93;89.68
69546;SHT31;56766;52.260;20.746;2023-11-19T11:02:03;1.88;89.65
69546;SHT31;56766;52.260;20.746;2023-11-19T11:04:39;1.84;89.70
69546;SHT31;56766;52.260;20.746;2023-11-19T11:07:09;1.81;89.77
69546;SHT31;56766;52.260;20.746;2023-11-19T11:09:36;1.81;89.87
69546;SHT31;56766;52.260;20.746;2023-11-19T11:12:04;1.79;89.91
69546;SHT31;56766;52.260;20.746;2023-11-19T11:14:34;1.79;89.97
69546;SHT31;56766;52.260;20.746;2023-11-19T11:17:06;1.77;89.97
69546;SHT31;56766;52.260;20.746;2023-11-19T11:19:36;1.76;89.97
69546;SHT31;56766;52.260;20.746;2023-11-19T11:22:06;1.76;90.08
69546;SHT31;56766;52.260;20.746;2023-11-19T11:27:43;1.72;90.10
69546;SHT31;56766;52.260;20.746;2023-11-19T11:31:03;1.71;90.20
69546;SHT31;56766;52.260;20.746;2023-11-19T11:39:40;1.85;90.24
69546;SHT31;56766;52.260;20.746;2023-11-19T11:45:01;1.88;90.35
69546;SHT31;56766;52.260;20.746;2023-11-19T11:50:18;1.99;90.40
69546;SHT31;56766;52.260;20.746;2023-11-19T11:55:37;2.10;90.28
69546;SHT31;56766;52.260;20.746;2023-11-19T11:58:29;2.16;90.23
69546;SHT31;56766;52.260;20.746;2023-11-19T12:00:59;2.18;90.12
69546;SHT31;56766;52.260;20.746;2023-11-19T12:03:29;2.20;90.10
69546;SHT31;56766;52.260;20.746;2023-11-19T12:05:58;2.21;90.06
69546;SHT31;56766;52.260;20.746;2023-11-19T12:08:27;2.23;90.01
69546;SHT31;56766;52.260;20.746;2023-11-19T12:10:58;2.23;89.92
69546;SHT31;56766;52.260;20.746;2023-11-19T12:14:03;2.23;89.92
69546;SHT31;56766;52.260;20.746;2023-11-19T12:16:30;2.23;89.92
69546;SHT31;56766;52.260;20.746;2023-11-19T12:19:03;2.24;89.90
69546;SHT31;56766;52.260;20.746;2023-11-19T12:21:33;2.23;89.90
69546;SHT31;56766;52.260;20.746;2023-11-19T12:24:03;2.20;89.85
69546;SHT31;56766;52.260;20.746;2023-11-19T12:26:35;2.17;89.76
69546;SHT31;56766;52.260;20.746;2023-11-19T12:29:03;2.16;89.91
69546;SHT31;56766;52.260;20.746;2023-11-19T12:31:32;2.14;89.90
69546;SHT31;56766;52.260;20.746;2023-11-19T12:33:59;2.13;89.90
69546;SHT31;56766;52.260;20.746;2023-11-19T12:36:26;2.10;89.85
69546;SHT31;56766;52.260;20.746;2023-11-19T12:38:53;2.07;89.92
69546;SHT31;56766;52.260;20.746;2023-11-19T12:41:20;2.04;89.91
69546;SHT31;56766;52.260;20.746;2023-11-19T12:43:51;2.01;89.88
69546;SHT31;56766;52.260;20.746;2023-11-19T12:46:20;2.00;89.91
69546;SHT31;56766;52.260;20.746;2023-11-19T12:48:49;1.98;90.00
69546;SHT31;56766;52.260;20.746;2023-11-19T12:51:17;1.98;90.00
69546;SHT31;56766;52.260;20.746;2023-11-19T12:53:53;1.97;90.06
69546;SHT31;56766;52.260;20.746;2023-11-19T12:56:25;1.96;90.08
69546;SHT31;56766;52.260;20.746;2023-11-19T12:58:51;1.97;90.13
69546;SHT31;56766;52.260;20.746;2023-11-19T13:01:20;1.97;90.20
69546;SHT31;56766;52.260;20.746;2023-11-19T13:03:48;1.95;90.17
69546;SHT31;56766;52.260;20.746;2023-11-19T13:06:18;1.93;90.22
69546;SHT31;56766;52.260;20.746;2023-11-19T13:08:49;1.92;90.27
69546;SHT31;56766;52.260;20.746;2023-11-19T13:11:32;1.90;90.30
69546;SHT31;56766;52.260;20.746;2023-11-19T13:14:02;1.87;90.26
69546;SHT31;56766;52.260;20.746;2023-11-19T13:16:38;1.88;90.38
69546;SHT31;56766;52.260;20.746;2023-11-19T13:19:05;1.88;90.40
69546;SHT31;56766;52.260;20.746;2023-11-19T13:21:32;1.85;90.42
69546;SHT31;56766;52.260;20.746;2023-11-19T13:23:59;1.86;90.50
69546;SHT31;56766;52.260;20.746;2023-11-19T13:26:25;1.85;90.50
69546;SHT31;56766;52.260;20.746;2023-11-19T13:28:52;1.84;90.50
69546;SHT31;56766;52.260;20.746;2023-11-19T13:31:19;1.83;90.51
69546;SHT31;56766;52.260;20.746;2023-11-19T13:33:45;1.81;90.58
69546;SHT31;56766;52.260;20.746;2023-11-19T13:36:12;1.78;90.60
69546;SHT31;56766;52.260;20.746;2023-11-19T13:38:39;1.79;90.69
69546;SHT31;56766;52.260;20.746;2023-11-19T13:41:07;1.78;90.71
69546;SHT31;56766;52.260;20.746;2023-11-19T13:43:36;1.76;90.75
69546;SHT31;56766;52.260;20.746;2023-11-19T13:46:03;1.78;90.81
69546;SHT31;56766;52.260;20.746;2023-11-19T13:48:30;1.78;90.82
69546;SHT31;56766;52.260;20.746;2023-11-19T13:50:56;1.77;90.83
69546;SHT31;56766;52.260;20.746;2023-11-19T13:53:23;1.75;90.82
69546;SHT31;56766;52.260;20.746;2023-11-19T13:55:50;1.72;90.85
69546;SHT31;56766;52.260;20.746;2023-11-19T13:58:17;1.71;90.90
69546;SHT31;56766;52.260;20.746;2023-11-19T14:00:43;1.70;90.96
69546;SHT31;56766;52.260;20.746;2023-11-19T14:03:10;1.69;91.01
69546;SHT31;56766;52.260;20.746;2023-11-19T14:05:38;1.68;91.08
69546;SHT31;56766;52.260;20.746;2023-11-19T14:08:05;1.66;91.10
69546;SHT31;56766;52.260;20.746;2023-11-19T14:10:38;1.63;91.09
69546;SHT31;56766;52.260;20.746;2023-11-19T14:13:08;1.61;91.10
69546;SHT31;56766;52.260;20.746;2023-11-19T14:15:35;1.60;91.15
69546;SHT31;56766;52.260;20.746;2023-11-19T14:18:02;1.58;91.18
69546;SHT31;56766;52.260;20.746;2023-11-19T14:20:29;1.55;91.20
69546;SHT31;56766;52.260;20.746;2023-11-19T14:22:56;1.53;91.20
69546;SHT31;56766;52.260;20.746;2023-11-19T14:25:23;1.52;91.26
69546;SHT31;56766;52.260;20.746;2023-11-19T14:27:50;1.48;91.29
69546;SHT31;56766;52.260;20.746;2023-11-19T14:30:17;1.45;91.31
69546;SHT31;56766;52.260;20.746;2023-11-19T14:32:44;1.42;91.39
69546;SHT31;56766;52.260;20.746;2023-11-19T14:35:12;1.40;91.40
69546;SHT31;56766;52.260;20.746;2023-11-19T14:37:39;1.37;91.43
69546;SHT31;56766;52.260;20.746;2023-11-19T14:40:06;1.34;91.50
69546;SHT31;56766;52.260;20.746;2023-11-19T14:42:37;1.32;91.60
69546;SHT31;56766;52.260;20.746;2023-11-19T14:45:07;1.30;91.63
69546;SHT31;56766;52.260;20.746;2023-11-19T14:47:34;1.28;91.70
69546;SHT31;56766;52.260;20.746;2023-11-19T14:50:01;1.26;91.72
69546;SHT31;56766;52.260;20.746;2023-11-19T14:52:28;1.24;91.81
69546;SHT31;56766;52.260;20.746;2023-11-19T14:54:55;1.25;91.89
69546;SHT31;56766;52.260;20.746;2023-11-19T14:57:23;1.23;91.93
69546;SHT31;56766;52.260;20.746;2023-11-19T14:59:49;1.22;91.98
69546;SHT31;56766;52.260;20.746;2023-11-19T15:02:16;1.20;92.00
69546;SHT31;56766;52.260;20.746;2023-11-19T15:04:44;1.17;92.09
69546;SHT31;56766;52.260;20.746;2023-11-19T15:07:10;1.16;92.11
69546;SHT31;56766;52.260;20.746;2023-11-19T15:09:37;1.15;92.14
69546;SHT31;56766;52.260;20.746;2023-11-19T15:12:05;1.14;92.24
69546;SHT31;56766;52.260;20.746;2023-11-19T15:14:32;1.14;92.30
69546;SHT31;56766;52.260;20.746;2023-11-19T15:16:58;1.13;92.30
69546;SHT31;56766;52.260;20.746;2023-11-19T15:19:25;1.14;92.32
69546;SHT31;56766;52.260;20.746;2023-11-19T15:21:52;1.15;92.38
69546;SHT31;56766;52.260;20.746;2023-11-19T15:24:21;1.15;92.40
69546;SHT31;56766;52.260;20.746;2023-11-19T15:26:48;1.15;92.44
69546;SHT31;56766;52.260;20.746;2023-11-19T15:29:15;1.17;92.50
69546;SHT31;56766;52.260;20.746;2023-11-19T15:31:41;1.17;92.51
69546;SHT31;56766;52.260;20.746;2023-11-19T15:34:08;1.20;92.52
69546;SHT31;56766;52.260;20.746;2023-11-19T15:36:35;1.21;92.56
69546;SHT31;56766;52.260;20.746;2023-11-19T15:39:03;1.22;92.60
69546;SHT31;56766;52.260;20.746;2023-11-19T15:41:30;1.23;92.62
69546;SHT31;56766;52.260;20.746;2023-11-19T15:43:57;1.24;92.66
69546;SHT31;56766;52.260;20.746;2023-11-19T15:46:24;1.25;92.67
69546;SHT31;56766;52.260;20.746;2023-11-19T15:48:51;1.24;92.67
69546;SHT31;56766;52.260;20.746;2023-11-19T15:51:18;1.24;92.63
69546;SHT31;56766;52.260;20.746;2023-11-19T15:53:44;1.23;92.65
69546;SHT31;56766;52.260;20.746;2023-11-19T15:56:12;1.22;92.70